createdAt,value
2019-05-23T00:01:44.657Z,65.10
2019-05-23T00:04:24.682Z,64.60
2019-05-23T00:06:53.879Z,65.30
2019-05-23T00:09:24.135Z,64.70
2019-05-23T00:11:57.751Z,65.20
2019-05-23T00:14:32.908Z,65.70
2019-05-23T00:17:03.564Z,65.80
2019-05-23T00:19:34.273Z,65.20
2019-05-23T00:22:04.111Z,65.40
2019-05-23T00:24:53.198Z,65.50
2019-05-23T00:27:23.814Z,66.20
2019-05-23T00:29:53.558Z,65.80
2019-05-23T00:32:29.911Z,65.60
2019-05-23T00:34:59.659Z,65.70
2019-05-23T00:37:30.365Z,65.80
2019-05-23T00:39:59.566Z,66.00
2019-05-23T00:42:28.873Z,66.30
2019-05-23T00:44:59.549Z,66.10
2019-05-23T00:47:28.768Z,66.20
2019-05-23T00:49:58.678Z,66.00
2019-05-23T00:52:27.826Z,66.00
2019-05-23T00:54:58.550Z,67.00
2019-05-23T00:57:28.669Z,66.70
2019-05-23T00:59:58.106Z,66.60
2019-05-23T01:02:28.084Z,67.30
2019-05-23T01:04:58.009Z,66.70
2019-05-23T01:07:27.350Z,66.50
2019-05-23T01:09:57.139Z,66.60
2019-05-23T01:12:27.855Z,66.70
2019-05-23T01:14:57.096Z,66.80
2019-05-23T01:17:26.349Z,67.50
2019-05-23T01:19:56.994Z,66.80
2019-05-23T01:22:26.256Z,67.00
2019-05-23T01:24:57.214Z,66.90
2019-05-23T01:27:26.564Z,67.10
2019-05-23T01:29:56.418Z,67.70
2019-05-23T01:32:45.084Z,67.20
2019-05-23T01:35:15.262Z,68.40
2019-05-23T01:37:44.345Z,68.00
2019-05-23T01:40:14.402Z,67.60
2019-05-23T01:42:44.017Z,67.60
2019-05-23T01:45:14.546Z,67.80
2019-05-23T01:47:44.279Z,68.10
2019-05-23T01:50:14.428Z,68.30
2019-05-23T01:52:43.605Z,68.00
2019-05-23T01:55:13.373Z,68.40
2019-05-23T01:57:42.522Z,67.70
2019-05-23T02:00:13.190Z,67.70
2019-05-23T02:02:42.621Z,68.20
2019-05-23T02:05:12.059Z,69.00
2019-05-23T02:07:42.027Z,67.90
2019-05-23T02:10:11.313Z,67.90
2019-05-23T02:12:41.068Z,68.50
2019-05-23T02:15:10.297Z,68.20
2019-05-23T02:17:41.089Z,68.60
2019-05-23T02:20:14.426Z,68.40
2019-05-23T02:22:44.607Z,68.80
2019-05-23T02:25:14.981Z,68.60
2019-05-23T02:27:44.802Z,68.50
2019-05-23T02:30:33.163Z,68.00
2019-05-23T02:32:47.934Z,68.70
2019-05-23T02:35:17.497Z,69.10
2019-05-23T02:37:50.717Z,69.00
2019-05-23T02:40:30.088Z,69.30
2019-05-23T02:43:17.178Z,69.90
2019-05-23T02:45:47.972Z,69.60
2019-05-23T02:48:24.601Z,69.00
2019-05-23T02:50:56.519Z,69.40
2019-05-23T02:53:26.997Z,68.80
2019-05-23T02:55:58.241Z,69.50
2019-05-23T02:58:37.822Z,69.60
2019-05-23T03:01:28.180Z,69.90
2019-05-23T03:03:58.005Z,70.20
2019-05-23T03:06:27.564Z,70.20
2019-05-23T03:08:57.580Z,69.90
2019-05-23T03:11:31.140Z,71.20
2019-05-23T03:14:00.896Z,70.60
2019-05-23T03:16:31.861Z,69.90
2019-05-23T03:19:03.782Z,70.30
2019-05-23T03:21:34.083Z,70.80
2019-05-23T03:24:04.791Z,70.60
2019-05-23T03:26:40.287Z,71.10
2019-05-23T03:29:11.008Z,71.10
2019-05-23T03:31:41.730Z,70.60
2019-05-23T03:34:12.407Z,70.70
2019-05-23T03:36:41.796Z,70.40
2019-05-23T03:39:11.817Z,70.30
2019-05-23T03:41:41.560Z,70.90
2019-05-23T03:44:10.768Z,70.10
2019-05-23T03:46:49.507Z,70.20
2019-05-23T03:49:20.097Z,71.00
2019-05-23T03:51:49.409Z,70.50
2019-05-23T03:54:18.762Z,70.70
2019-05-23T03:56:48.103Z,70.60
2019-05-23T03:59:27.614Z,70.30
2019-05-23T04:01:56.954Z,70.80
2019-05-23T04:04:26.546Z,71.50
2019-05-23T04:06:55.667Z,70.70
2019-05-23T04:09:24.894Z,70.50
2019-05-23T04:11:54.654Z,70.80
2019-05-23T04:14:24.107Z,70.00
2019-05-23T04:16:53.529Z,70.20
2019-05-23T04:19:22.990Z,70.30
2019-05-23T04:21:52.217Z,70.50
2019-05-23T04:24:21.481Z,71.00
2019-05-23T04:26:50.506Z,71.50
2019-05-23T04:29:19.740Z,71.10
2019-05-23T04:32:06.270Z,71.60
2019-05-23T04:34:19.788Z,72.80
2019-05-23T04:36:48.907Z,71.40
2019-05-23T04:39:18.033Z,71.20
2019-05-23T04:41:47.347Z,71.30
2019-05-23T04:44:16.987Z,71.10
2019-05-23T04:46:45.973Z,71.90
2019-05-23T04:49:15.880Z,71.20
2019-05-23T04:51:45.089Z,71.80
2019-05-23T04:54:14.262Z,71.50
2019-05-23T04:56:43.974Z,71.10
2019-05-23T04:59:13.067Z,71.30
2019-05-23T05:01:42.572Z,71.80
2019-05-23T05:04:11.739Z,71.60
2019-05-23T05:06:41.122Z,71.50
2019-05-23T05:09:11.716Z,71.60
2019-05-23T05:11:41.109Z,72.30
2019-05-23T05:14:29.474Z,71.80
2019-05-23T05:16:58.905Z,72.50
2019-05-23T05:19:28.032Z,71.80
2019-05-23T05:21:57.198Z,72.40
2019-05-23T05:24:26.350Z,71.90
2019-05-23T05:26:55.513Z,72.80
2019-05-23T05:29:24.772Z,72.00
2019-05-23T05:31:54.638Z,72.40
2019-05-23T05:34:23.768Z,72.60
2019-05-23T05:36:52.963Z,72.00
2019-05-23T05:39:22.871Z,71.80
2019-05-23T05:41:52.209Z,71.60
2019-05-23T05:44:21.441Z,71.40
2019-05-23T05:46:51.961Z,71.90
2019-05-23T05:49:22.008Z,71.00
2019-05-23T05:51:51.348Z,71.40
2019-05-23T05:54:20.684Z,71.30
2019-05-23T05:56:50.010Z,70.60
2019-05-23T05:59:19.112Z,70.40
2019-05-23T06:01:48.314Z,70.20
2019-05-23T06:04:17.574Z,70.00
2019-05-23T06:06:50.219Z,69.90
2019-05-23T06:09:20.707Z,70.50
2019-05-23T06:11:52.033Z,69.60
2019-05-23T06:14:20.799Z,69.30
2019-05-23T06:16:51.513Z,70.30
2019-05-23T06:19:20.653Z,68.90
2019-05-23T06:21:50.886Z,68.60
2019-05-23T06:24:39.705Z,68.10
2019-05-23T06:26:52.140Z,67.90
2019-05-23T06:29:23.507Z,68.00
2019-05-23T06:31:53.937Z,68.50
2019-05-23T06:34:23.383Z,67.50
2019-05-23T06:36:52.552Z,68.00
2019-05-23T06:39:22.162Z,66.80
2019-05-23T06:41:51.260Z,67.70
2019-05-23T06:44:21.085Z,65.40
2019-05-23T06:46:50.471Z,65.10
2019-05-23T06:49:19.670Z,65.20
2019-05-23T06:51:48.994Z,65.10
2019-05-23T06:54:17.940Z,65.10
2019-05-23T06:56:47.281Z,65.70
2019-05-23T06:59:16.430Z,65.90
2019-05-23T07:01:48.375Z,64.60
2019-05-23T07:04:17.974Z,64.10
2019-05-23T07:06:47.223Z,64.50
2019-05-23T07:09:17.643Z,64.10
2019-05-23T07:11:46.873Z,63.50
2019-05-23T07:14:16.216Z,62.90
2019-05-23T07:16:49.682Z,62.60
2019-05-23T07:19:16.473Z,62.20
2019-05-23T07:21:45.716Z,60.90
2019-05-23T07:24:14.993Z,61.20
2019-05-23T07:26:44.265Z,61.00
2019-05-23T07:29:13.533Z,60.80
2019-05-23T07:31:42.865Z,59.70
2019-05-23T07:36:40.795Z,58.50
2019-05-23T07:39:11.678Z,58.20
2019-05-23T07:41:40.852Z,57.60
2019-05-23T07:44:11.337Z,57.30
2019-05-23T07:46:40.436Z,56.90
2019-05-23T07:49:09.797Z,54.70
2019-05-23T07:51:38.903Z,55.90
2019-05-23T07:54:12.445Z,56.20
2019-05-23T07:56:43.155Z,54.30
2019-05-23T07:59:12.453Z,54.70
2019-05-23T08:01:43.302Z,54.10
2019-05-23T08:04:20.995Z,54.30
2019-05-23T08:06:48.416Z,55.00
2019-05-23T08:09:15.718Z,54.30
2019-05-23T08:11:45.337Z,54.40
2019-05-23T08:14:14.587Z,52.20
2019-05-23T08:16:43.562Z,53.30
2019-05-23T08:19:19.200Z,50.40
2019-05-23T08:21:43.510Z,49.50
2019-05-23T08:24:12.907Z,48.90
2019-05-23T08:26:42.153Z,48.80
2019-05-23T08:29:25.600Z,50.10
2019-05-23T08:31:42.810Z,47.40
2019-05-23T08:34:12.098Z,48.00
2019-05-23T08:36:41.387Z,46.70
2019-05-23T08:39:12.783Z,46.10
2019-05-23T08:41:42.005Z,46.60
2019-05-23T08:44:11.696Z,47.90
2019-05-23T08:46:41.344Z,46.20
2019-05-23T08:49:12.307Z,45.60
2019-05-23T08:51:42.794Z,46.10
2019-05-23T08:54:12.305Z,46.20
2019-05-23T08:56:41.577Z,46.40
2019-05-23T08:59:11.168Z,43.70
2019-05-23T09:01:40.724Z,43.40
2019-05-23T09:04:10.606Z,44.70
2019-05-23T09:06:39.911Z,44.40
2019-05-23T09:09:28.396Z,44.00
2019-05-23T09:11:41.292Z,43.80
2019-05-23T09:14:10.658Z,41.20
2019-05-23T09:16:39.650Z,43.00
2019-05-23T09:19:08.959Z,42.80
2019-05-23T09:21:38.219Z,41.00
2019-05-23T09:24:07.659Z,41.90
2019-05-23T09:26:37.046Z,40.00
2019-05-23T09:29:06.605Z,39.50
2019-05-23T09:31:36.317Z,38.50
2019-05-23T09:34:05.697Z,37.90
2019-05-23T09:36:34.818Z,37.80
2019-05-23T09:39:05.780Z,37.80
2019-05-23T09:41:35.616Z,38.30
2019-05-23T09:44:05.012Z,36.10
2019-05-23T09:46:34.313Z,35.80
2019-05-23T09:49:03.580Z,34.60
2019-05-23T09:51:32.980Z,35.60
2019-05-23T09:54:02.234Z,35.40
2019-05-23T09:56:31.858Z,33.60
2019-05-23T09:59:01.004Z,34.50
2019-05-23T10:01:30.271Z,33.10
2019-05-23T10:03:59.567Z,32.60
2019-05-23T10:06:28.781Z,32.60
2019-05-23T10:08:58.010Z,33.10
2019-05-23T10:11:27.227Z,33.50
2019-05-23T10:13:56.614Z,32.50
2019-05-23T10:16:25.846Z,31.00
2019-05-23T10:18:54.999Z,30.80
2019-05-23T10:21:24.300Z,31.20
2019-05-23T10:23:53.510Z,31.80
2019-05-23T10:26:22.899Z,32.00
2019-05-23T10:28:52.147Z,32.20
2019-05-23T10:31:21.797Z,32.10
2019-05-23T10:33:51.113Z,31.70
2019-05-23T10:36:20.439Z,32.60
2019-05-23T10:38:49.713Z,32.80
2019-05-23T10:41:18.883Z,32.10
2019-05-23T10:43:48.114Z,30.20
2019-05-23T10:46:17.403Z,30.10
2019-05-23T10:48:46.610Z,29.80
2019-05-23T10:51:15.800Z,30.60
2019-05-23T10:53:45.103Z,30.30
2019-05-23T10:56:20.263Z,29.90
2019-05-23T10:58:46.342Z,28.60
2019-05-23T11:01:16.038Z,28.90
2019-05-23T11:03:45.295Z,29.70
2019-05-23T11:06:16.701Z,29.30
2019-05-23T11:08:45.535Z,28.80
2019-05-23T11:11:15.456Z,28.50
2019-05-23T11:13:44.673Z,28.60
2019-05-23T11:16:13.978Z,28.70
2019-05-23T11:18:43.349Z,29.50
2019-05-23T11:21:12.652Z,28.70
2019-05-23T11:23:49.306Z,29.10
2019-05-23T11:26:18.608Z,29.20
2019-05-23T11:28:48.014Z,28.60
2019-05-23T11:31:17.392Z,28.30
2019-05-23T11:33:46.545Z,28.40
2019-05-23T11:36:31.768Z,28.70
2019-05-23T11:38:46.665Z,28.30
2019-05-23T11:41:15.946Z,26.40
2019-05-23T11:43:46.021Z,27.30
2019-05-23T11:46:22.759Z,27.10
2019-05-23T11:48:52.562Z,27.40
2019-05-23T11:51:25.243Z,27.20
2019-05-23T11:54:06.590Z,27.30
2019-05-23T11:56:23.439Z,28.00
2019-05-23T11:58:52.796Z,29.00
2019-05-23T12:01:29.580Z,29.10
2019-05-23T12:04:00.280Z,29.30
2019-05-23T12:06:31.066Z,29.40
2019-05-23T12:09:00.184Z,27.60
2019-05-23T12:11:29.839Z,28.10
2019-05-23T12:13:58.799Z,28.80
2019-05-23T12:16:28.436Z,28.20
2019-05-23T12:18:57.839Z,28.20
2019-05-23T12:21:27.068Z,28.00
2019-05-23T12:23:56.315Z,27.80
2019-05-23T12:26:27.321Z,27.60
2019-05-23T12:28:56.406Z,27.50
2019-05-23T12:31:25.559Z,27.50
2019-05-23T12:33:54.748Z,27.50
2019-05-23T12:36:24.988Z,28.00
2019-05-23T12:38:54.263Z,28.40
2019-05-23T12:41:23.450Z,28.50
2019-05-23T12:43:52.714Z,29.00
2019-05-23T12:46:22.043Z,29.00
2019-05-23T12:49:04.882Z,29.50
2019-05-23T12:51:35.487Z,29.20
2019-05-23T12:54:04.933Z,29.00
2019-05-23T12:56:34.892Z,28.90
2019-05-23T12:59:06.078Z,29.20
2019-05-23T13:01:37.030Z,29.40
2019-05-23T13:04:10.161Z,29.10
2019-05-23T13:06:37.521Z,29.90
2019-05-23T13:09:09.462Z,30.40
2019-05-23T13:11:39.075Z,30.60
2019-05-23T13:14:09.033Z,30.00
2019-05-23T13:16:38.458Z,30.70
2019-05-23T13:19:07.821Z,30.50
2019-05-23T13:21:37.009Z,31.20
2019-05-23T13:24:06.197Z,30.20
2019-05-23T13:26:35.415Z,29.60
2019-05-23T13:29:04.564Z,29.80
2019-05-23T13:31:33.762Z,29.40
2019-05-23T13:34:03.105Z,29.30
2019-05-23T13:36:32.297Z,29.40
2019-05-23T13:39:01.473Z,29.70
2019-05-23T13:41:30.732Z,29.00
2019-05-23T13:44:00.038Z,29.50
2019-05-23T13:46:29.384Z,28.40
2019-05-23T13:48:58.986Z,28.00
2019-05-23T13:51:28.607Z,27.90
2019-05-23T13:53:57.769Z,27.40
2019-05-23T13:56:27.372Z,27.00
2019-05-23T13:58:56.657Z,27.40
2019-05-23T14:01:26.017Z,27.50
2019-05-23T14:03:55.858Z,26.60
2019-05-23T14:06:25.172Z,26.90
2019-05-23T14:08:54.413Z,27.10
2019-05-23T14:11:23.740Z,27.90
2019-05-23T14:14:00.206Z,28.00
2019-05-23T14:16:27.529Z,27.80
2019-05-23T14:18:56.718Z,26.90
2019-05-23T14:21:26.366Z,26.70
2019-05-23T14:23:55.644Z,26.70
2019-05-23T14:26:26.517Z,26.60
2019-05-23T14:28:55.981Z,27.20
2019-05-23T14:31:25.359Z,26.60
2019-05-23T14:33:56.017Z,26.60
2019-05-23T14:36:31.080Z,26.50
2019-05-23T14:38:58.796Z,27.20
2019-05-23T14:41:44.218Z,27.10
2019-05-23T14:44:00.686Z,27.40
2019-05-23T14:46:31.550Z,27.60
2019-05-23T14:49:08.449Z,27.90
2019-05-23T14:51:41.802Z,27.20
2019-05-23T14:54:22.032Z,28.40
2019-05-23T14:56:51.582Z,28.90
2019-05-23T14:59:21.126Z,28.70
2019-05-23T15:01:51.561Z,29.00
2019-05-23T15:04:21.225Z,29.10
2019-05-23T15:06:50.694Z,28.20
2019-05-23T15:09:21.480Z,28.90
2019-05-23T15:11:51.654Z,28.70
2019-05-23T15:14:20.982Z,28.20
2019-05-23T15:16:50.365Z,29.20
2019-05-23T15:19:38.685Z,29.20
2019-05-23T15:21:50.220Z,29.20
2019-05-23T15:24:19.671Z,29.30
2019-05-23T15:26:48.815Z,29.30
2019-05-23T15:29:18.433Z,29.20
2019-05-23T15:32:01.567Z,29.10
2019-05-23T15:34:18.941Z,29.10
2019-05-23T15:36:48.410Z,28.90
2019-05-23T15:39:18.855Z,29.40
2019-05-23T15:41:48.606Z,29.30
2019-05-23T15:44:26.944Z,29.50
2019-05-23T15:46:49.012Z,29.90
2019-05-23T15:49:18.473Z,29.60
2019-05-23T15:51:53.556Z,29.70
2019-05-23T15:54:21.472Z,30.00
2019-05-23T15:57:01.120Z,30.30
2019-05-23T15:59:34.903Z,30.00
2019-05-23T16:02:14.728Z,30.00
2019-05-23T16:04:44.285Z,30.00
2019-05-23T16:07:13.750Z,29.90
2019-05-23T16:09:42.849Z,29.90
2019-05-23T16:12:12.142Z,30.20
2019-05-23T16:14:41.389Z,30.10
2019-05-23T16:17:12.122Z,30.40
2019-05-23T16:19:42.309Z,30.60
2019-05-23T16:22:11.775Z,31.60
2019-05-23T16:24:41.038Z,30.00
2019-05-23T16:27:10.581Z,30.80
2019-05-23T16:29:41.059Z,31.30
2019-05-23T16:32:10.395Z,31.20
2019-05-23T16:34:39.551Z,30.70
2019-05-23T16:37:08.685Z,31.60
2019-05-23T16:39:47.654Z,31.10
2019-05-23T16:42:09.079Z,31.20
2019-05-23T16:44:38.323Z,31.00
2019-05-23T16:47:07.504Z,30.60
2019-05-23T16:49:36.672Z,30.70
2019-05-23T16:52:05.855Z,30.90
2019-05-23T16:54:36.430Z,31.10
2019-05-23T16:57:07.225Z,31.50
2019-05-23T16:59:37.887Z,31.00
2019-05-23T17:02:11.791Z,32.30
2019-05-23T17:04:42.861Z,31.90
2019-05-23T17:07:19.064Z,31.80
2019-05-23T17:12:41.787Z,30.90
2019-05-23T17:15:15.707Z,30.90
2019-05-23T17:18:02.383Z,31.80
2019-05-23T17:20:38.620Z,30.80
2019-05-23T17:23:09.500Z,30.70
2019-05-23T17:25:49.132Z,30.50
2019-05-23T17:28:38.122Z,30.90
2019-05-23T17:31:11.644Z,30.90
2019-05-23T17:33:40.863Z,31.00
2019-05-23T17:36:10.258Z,30.60
2019-05-23T17:38:39.981Z,30.50
2019-05-23T17:41:10.169Z,30.40
2019-05-23T17:43:39.968Z,30.60
2019-05-23T17:46:10.276Z,31.00
2019-05-23T17:48:39.810Z,30.90
2019-05-23T17:51:09.368Z,30.70
2019-05-23T17:53:39.098Z,30.80
2019-05-23T17:56:27.735Z,30.30
2019-05-23T17:58:57.657Z,29.10
2019-05-23T18:01:27.069Z,29.90
2019-05-23T18:03:56.950Z,29.40
2019-05-23T18:06:27.050Z,28.80
2019-05-23T18:08:57.625Z,28.40
2019-05-23T18:11:46.696Z,28.50
2019-05-23T18:14:16.399Z,27.90
2019-05-23T18:16:46.958Z,28.80
2019-05-23T18:19:17.117Z,28.60
2019-05-23T18:21:47.640Z,28.40
2019-05-23T18:24:19.301Z,28.40
2019-05-23T18:26:49.293Z,28.60
2019-05-23T18:29:20.483Z,28.30
2019-05-23T18:31:52.184Z,28.60
2019-05-23T18:34:23.049Z,28.80
2019-05-23T18:36:54.688Z,28.20
2019-05-23T18:39:25.074Z,29.10
2019-05-23T18:41:55.411Z,28.80
2019-05-23T18:44:26.101Z,28.20
2019-05-23T18:46:57.344Z,28.40
2019-05-23T18:49:28.484Z,28.40
2019-05-23T18:51:59.328Z,28.30
2019-05-23T18:54:30.286Z,28.20
2019-05-23T18:57:00.482Z,28.10
2019-05-23T18:59:32.305Z,29.00
2019-05-23T19:02:05.570Z,29.20
2019-05-23T19:04:38.324Z,30.10
2019-05-23T19:07:11.720Z,29.60
2019-05-23T19:09:44.417Z,30.60
2019-05-23T19:12:16.793Z,30.10
2019-05-23T19:14:49.475Z,30.40
2019-05-23T19:17:22.518Z,31.50
2019-05-23T19:19:54.284Z,31.00
2019-05-23T19:22:27.091Z,31.80
2019-05-23T19:27:31.938Z,30.80
2019-05-23T19:30:05.027Z,30.30
2019-05-23T19:32:36.067Z,30.10
2019-05-23T19:35:06.589Z,30.50
2019-05-23T19:37:37.736Z,29.90
2019-05-23T19:40:10.197Z,29.90
2019-05-23T19:42:42.176Z,30.20
2019-05-23T19:45:14.200Z,30.00
2019-05-23T19:47:45.809Z,31.10
2019-05-23T19:50:18.167Z,30.80
2019-05-23T19:52:52.120Z,31.60
2019-05-23T19:55:23.552Z,31.80
2019-05-23T19:57:56.876Z,30.90
2019-05-23T20:00:29.987Z,32.30
2019-05-23T20:03:03.983Z,31.80
2019-05-23T20:05:45.374Z,32.50
2019-05-23T20:08:18.398Z,32.80
2019-05-23T20:10:48.932Z,32.40
2019-05-23T20:13:19.679Z,33.30
2019-05-23T20:15:50.484Z,33.10
2019-05-23T20:18:21.619Z,33.30
2019-05-23T20:20:53.335Z,33.30
2019-05-23T20:23:24.239Z,33.90
2019-05-23T20:25:54.955Z,34.50
2019-05-23T20:28:25.983Z,35.20
2019-05-23T20:30:56.563Z,35.20
2019-05-23T20:33:27.388Z,34.70
2019-05-23T20:36:02.662Z,35.40
2019-05-23T20:38:33.721Z,35.60
2019-05-23T20:41:07.294Z,35.20
2019-05-23T20:43:37.968Z,35.40
2019-05-23T20:46:09.345Z,36.20
2019-05-23T20:48:40.172Z,36.10
2019-05-23T20:51:10.611Z,36.80
2019-05-23T20:53:41.329Z,36.90
2019-05-23T20:56:12.059Z,36.40
2019-05-23T20:58:42.362Z,36.50
2019-05-23T21:01:16.178Z,37.20
2019-05-23T21:03:45.406Z,37.20
2019-05-23T21:06:15.345Z,37.30
2019-05-23T21:08:44.504Z,37.30
2019-05-23T21:11:14.957Z,37.50
2019-05-23T21:13:44.478Z,38.10
2019-05-23T21:16:14.574Z,38.20
2019-05-23T21:18:43.910Z,37.90
2019-05-23T21:21:13.892Z,38.00
2019-05-23T21:23:43.200Z,38.10
2019-05-23T21:26:12.406Z,38.40
2019-05-23T21:28:41.737Z,38.70
2019-05-23T21:31:12.399Z,39.10
2019-05-23T21:33:41.815Z,39.40
2019-05-23T21:36:11.072Z,39.40
2019-05-23T21:38:40.383Z,39.70
2019-05-23T21:41:09.773Z,39.90
2019-05-23T21:43:38.796Z,40.20
2019-05-23T21:46:08.025Z,41.10
2019-05-23T21:48:37.111Z,41.00
2019-05-23T21:51:06.207Z,42.50
2019-05-23T21:53:35.212Z,41.50
2019-05-23T21:56:04.575Z,42.30
2019-05-23T21:58:33.774Z,42.10
2019-05-23T22:01:16.337Z,42.20
2019-05-23T22:03:52.853Z,41.20
2019-05-23T22:06:36.041Z,43.30
2019-05-23T22:09:07.764Z,44.00
2019-05-23T22:11:36.977Z,43.60
2019-05-23T22:14:06.488Z,43.30
2019-05-23T22:16:35.478Z,43.50
2019-05-23T22:19:05.329Z,43.70
2019-05-23T22:21:34.872Z,43.90
2019-05-23T22:24:04.151Z,44.90
2019-05-23T22:26:33.420Z,44.30
2019-05-23T22:29:02.600Z,45.10
2019-05-23T22:31:31.749Z,44.60
2019-05-23T22:34:02.555Z,44.70
2019-05-23T22:36:31.805Z,45.00
2019-05-23T22:39:00.808Z,45.30
2019-05-23T22:41:29.769Z,45.80
2019-05-23T22:43:58.968Z,45.90
2019-05-23T22:46:29.013Z,46.10
2019-05-23T22:48:58.112Z,46.00
2019-05-23T22:51:27.235Z,46.70
2019-05-23T22:53:56.228Z,47.00
2019-05-23T22:56:25.390Z,46.60
2019-05-23T22:58:54.637Z,46.80
2019-05-23T23:01:25.344Z,47.10
2019-05-23T23:03:54.546Z,47.90
2019-05-23T23:06:24.332Z,47.00
2019-05-23T23:08:53.471Z,47.70
2019-05-23T23:11:22.745Z,47.30
2019-05-23T23:13:51.998Z,48.10
2019-05-23T23:16:21.113Z,48.20
2019-05-23T23:18:50.253Z,48.50
2019-05-23T23:21:19.523Z,49.10
2019-05-23T23:23:48.720Z,48.30
2019-05-23T23:26:17.834Z,49.20
2019-05-23T23:28:47.095Z,48.60
2019-05-23T23:31:16.266Z,49.10
2019-05-23T23:33:45.430Z,49.20
2019-05-23T23:36:14.491Z,48.80
2019-05-23T23:38:43.605Z,49.30
2019-05-23T23:41:12.802Z,49.70
2019-05-23T23:43:57.972Z,49.50
2019-05-23T23:46:30.814Z,49.60
2019-05-23T23:49:17.737Z,50.80
2019-05-23T23:52:04.793Z,51.50
2019-05-23T23:54:51.366Z,51.80
2019-05-23T23:57:38.333Z,51.40
